sensor_id;sensor_type;location;lat;lon;timestamp;temperature;humidity
6556;DHT22;3311;48.32423000;14.29074500;2023-03-26T00:02:09;13.00;62.90
6556;DHT22;3311;48.32423000;14.29074500;2023-03-26T00:04:36;13.00;63.00
6556;DHT22;3311;48.32423000;14.29074500;2023-03-26T00:07:03;13.00;63.80
6556;DHT22;3311;48.32423000;14.29074500;2023-03-26T00:09:30;13.10;63.20
6556;DHT22;3311;48.32423000;14.29074500;2023-03-26T00:11:58;13.20;62.90
6556;DHT22;3311;48.32423000;14.29074500;2023-03-26T00:14:28;13.10;63.20
6556;DHT22;3311;48.32423000;14.29074500;2023-03-26T00:16:55;12.90;63.50
6556;DHT22;3311;48.32423000;14.29074500;2023-03-26T00:19:22;13.00;63.70
6556;DHT22;3311;48.32423000;14.29074500;2023-03-26T00:21:50;13.00;63.50
6556;DHT22;3311;48.32423000;14.29074500;2023-03-26T00:24:18;13.10;63.60
6556;DHT22;3311;48.32423000;14.29074500;2023-03-26T00:26:45;13.10;63.40
6556;DHT22;3311;48.32423000;14.29074500;2023-03-26T00:29:17;13.10;63.50
6556;DHT22;3311;48.32423000;14.29074500;2023-03-26T00:31:46;13.10;63.70
6556;DHT22;3311;48.32423000;14.29074500;2023-03-26T00:34:14;13.10;63.40
6556;DHT22;3311;48.32423000;14.29074500;2023-03-26T00:36:43;13.10;64.00
6556;DHT22;3311;48.32423000;14.29074500;2023-03-26T00:39:11;13.10;64.50
6556;DHT22;3311;48.32423000;14.29074500;2023-03-26T00:41:38;13.10;63.90
6556;DHT22;3311;48.32423000;14.29074500;2023-03-26T00:44:08;13.20;63.60
6556;DHT22;3311;48.32423000;14.29074500;2023-03-26T00:46:36;13.10;63.90
6556;DHT22;3311;48.32423000;14.29074500;2023-03-26T00:49:05;13.20;64.10
6556;DHT22;3311;48.32423000;14.29074500;2023-03-26T00:51:35;13.20;63.60
6556;DHT22;3311;48.32423000;14.29074500;2023-03-26T00:54:03;13.20;63.50
6556;DHT22;3311;48.32423000;14.29074500;2023-03-26T00:56:32;13.30;63.50
6556;DHT22;3311;48.32423000;14.29074500;2023-03-26T00:59:00;13.30;63.20
6556;DHT22;3311;48.32423000;14.29074500;2023-03-26T01:01:28;13.50;63.10
6556;DHT22;3311;48.32423000;14.29074500;2023-03-26T01:03:58;13.50;63.00
6556;DHT22;3311;48.32423000;14.29074500;2023-03-26T01:06:28;13.60;62.70
6556;DHT22;3311;48.32423000;14.29074500;2023-03-26T01:09:01;13.80;62.40
6556;DHT22;3311;48.32423000;14.29074500;2023-03-26T01:11:32;13.80;62.20
6556;DHT22;3311;48.32423000;14.29074500;2023-03-26T01:14:04;13.70;62.50
6556;DHT22;3311;48.32423000;14.29074500;2023-03-26T01:16:36;13.80;62.60
6556;DHT22;3311;48.32423000;14.29074500;2023-03-26T01:19:11;14.10;62.20
6556;DHT22;3311;48.32423000;14.29074500;2023-03-26T01:21:42;14.00;62.20
6556;DHT22;3311;48.32423000;14.29074500;2023-03-26T01:24:13;14.10;61.80
6556;DHT22;3311;48.32423000;14.29074500;2023-03-26T01:26:53;14.10;62.10
6556;DHT22;3311;48.32423000;14.29074500;2023-03-26T01:29:30;14.00;61.70
6556;DHT22;3311;48.32423000;14.29074500;2023-03-26T01:32:05;14.00;61.70
6556;DHT22;3311;48.32423000;14.29074500;2023-03-26T01:34:44;13.90;61.80
6556;DHT22;3311;48.32423000;14.29074500;2023-03-26T01:37:21;14.00;62.10
6556;DHT22;3311;48.32423000;14.29074500;2023-03-26T01:39:55;13.90;61.80
6556;DHT22;3311;48.32423000;14.29074500;2023-03-26T01:42:35;13.90;61.80
6556;DHT22;3311;48.32423000;14.29074500;2023-03-26T01:45:09;14.10;61.40
6556;DHT22;3311;48.32423000;14.29074500;2023-03-26T01:47:40;14.10;60.90
6556;DHT22;3311;48.32423000;14.29074500;2023-03-26T01:50:09;14.20;61.20
6556;DHT22;3311;48.32423000;14.29074500;2023-03-26T01:52:36;14.30;61.00
6556;DHT22;3311;48.32423000;14.29074500;2023-03-26T01:55:07;14.20;60.60
6556;DHT22;3311;48.32423000;14.29074500;2023-03-26T01:57:47;14.20;61.10
6556;DHT22;3311;48.32423000;14.29074500;2023-03-26T02:00:22;14.20;60.80
6556;DHT22;3311;48.32423000;14.29074500;2023-03-26T02:03:04;14.30;60.60
6556;DHT22;3311;48.32423000;14.29074500;2023-03-26T02:05:48;14.20;60.80
6556;DHT22;3311;48.32423000;14.29074500;2023-03-26T02:08:22;14.30;60.70
6556;DHT22;3311;48.32423000;14.29074500;2023-03-26T02:10:54;14.30;60.40
6556;DHT22;3311;48.32423000;14.29074500;2023-03-26T02:13:24;14.30;60.20
6556;DHT22;3311;48.32423000;14.29074500;2023-03-26T02:15:57;14.40;60.00
6556;DHT22;3311;48.32423000;14.29074500;2023-03-26T02:18:25;14.40;60.00
6556;DHT22;3311;48.32423000;14.29074500;2023-03-26T02:21:02;14.40;60.00
6556;DHT22;3311;48.32423000;14.29074500;2023-03-26T02:23:30;14.30;59.90
6556;DHT22;3311;48.32423000;14.29074500;2023-03-26T02:26:05;14.30;59.90
6556;DHT22;3311;48.32423000;14.29074500;2023-03-26T02:28:33;14.30;59.60
6556;DHT22;3311;48.32423000;14.29074500;2023-03-26T02:31:00;14.20;59.80
6556;DHT22;3311;48.32423000;14.29074500;2023-03-26T02:33:28;14.30;59.80
6556;DHT22;3311;48.32423000;14.29074500;2023-03-26T02:35:57;14.20;59.70
6556;DHT22;3311;48.32423000;14.29074500;2023-03-26T02:38:27;14.20;60.10
6556;DHT22;3311;48.32423000;14.29074500;2023-03-26T02:40:58;14.40;60.00
6556;DHT22;3311;48.32423000;14.29074500;2023-03-26T02:43:27;14.50;59.90
6556;DHT22;3311;48.32423000;14.29074500;2023-03-26T02:45:54;17.60;62.20
6556;DHT22;3311;48.32423000;14.29074500;2023-03-26T02:48:21;14.50;59.50
6556;DHT22;3311;48.32423000;14.29074500;2023-03-26T02:50:49;14.50;59.40
6556;DHT22;3311;48.32423000;14.29074500;2023-03-26T02:53:19;14.50;59.30
6556;DHT22;3311;48.32423000;14.29074500;2023-03-26T02:55:48;14.30;60.10
6556;DHT22;3311;48.32423000;14.29074500;2023-03-26T02:58:16;14.30;59.50
6556;DHT22;3311;48.32423000;14.29074500;2023-03-26T03:00:44;14.30;59.60
6556;DHT22;3311;48.32423000;14.29074500;2023-03-26T03:03:12;14.40;59.50
6556;DHT22;3311;48.32423000;14.29074500;2023-03-26T03:05:42;14.40;59.40
6556;DHT22;3311;48.32423000;14.29074500;2023-03-26T03:08:09;14.30;59.20
6556;DHT22;3311;48.32423000;14.29074500;2023-03-26T03:10:36;14.30;59.50
6556;DHT22;3311;48.32423000;14.29074500;2023-03-26T03:13:04;14.40;59.50
6556;DHT22;3311;48.32423000;14.29074500;2023-03-26T03:15:32;14.40;59.60
6556;DHT22;3311;48.32423000;14.29074500;2023-03-26T03:18:02;14.40;59.50
6556;DHT22;3311;48.32423000;14.29074500;2023-03-26T03:20:29;14.50;59.50
6556;DHT22;3311;48.32423000;14.29074500;2023-03-26T03:23:00;14.60;59.60
6556;DHT22;3311;48.32423000;14.29074500;2023-03-26T03:25:27;14.70;59.50
6556;DHT22;3311;48.32423000;14.29074500;2023-03-26T03:27:55;14.60;59.50
6556;DHT22;3311;48.32423000;14.29074500;2023-03-26T03:30:22;14.60;60.00
6556;DHT22;3311;48.32423000;14.29074500;2023-03-26T03:32:49;14.80;59.70
6556;DHT22;3311;48.32423000;14.29074500;2023-03-26T03:35:18;14.70;59.60
6556;DHT22;3311;48.32423000;14.29074500;2023-03-26T03:37:45;14.60;59.50
6556;DHT22;3311;48.32423000;14.29074500;2023-03-26T03:40:13;14.60;59.70
6556;DHT22;3311;48.32423000;14.29074500;2023-03-26T03:42:40;14.50;60.10
6556;DHT22;3311;48.32423000;14.29074500;2023-03-26T03:45:09;14.50;60.30
6556;DHT22;3311;48.32423000;14.29074500;2023-03-26T03:47:36;14.50;59.80
6556;DHT22;3311;48.32423000;14.29074500;2023-03-26T03:50:05;14.60;60.10
6556;DHT22;3311;48.32423000;14.29074500;2023-03-26T03:52:34;14.70;59.80
6556;DHT22;3311;48.32423000;14.29074500;2023-03-26T03:55:02;14.70;59.60
6556;DHT22;3311;48.32423000;14.29074500;2023-03-26T03:57:29;14.80;59.60
6556;DHT22;3311;48.32423000;14.29074500;2023-03-26T03:59:58;14.70;59.50
6556;DHT22;3311;48.32423000;14.29074500;2023-03-26T04:02:26;14.70;59.60
6556;DHT22;3311;48.32423000;14.29074500;2023-03-26T04:04:59;14.80;59.40
6556;DHT22;3311;48.32423000;14.29074500;2023-03-26T04:07:28;14.70;59.40
6556;DHT22;3311;48.32423000;14.29074500;2023-03-26T04:10:00;14.70;59.60
6556;DHT22;3311;48.32423000;14.29074500;2023-03-26T04:12:29;14.60;59.40
6556;DHT22;3311;48.32423000;14.29074500;2023-03-26T04:14:57;14.50;59.60
6556;DHT22;3311;48.32423000;14.29074500;2023-03-26T04:17:25;14.40;59.50
6556;DHT22;3311;48.32423000;14.29074500;2023-03-26T04:19:55;14.30;59.90
6556;DHT22;3311;48.32423000;14.29074500;2023-03-26T04:22:22;14.20;60.10
6556;DHT22;3311;48.32423000;14.29074500;2023-03-26T04:25:00;14.10;60.00
6556;DHT22;3311;48.32423000;14.29074500;2023-03-26T04:27:31;14.10;60.10
6556;DHT22;3311;48.32423000;14.29074500;2023-03-26T04:30:01;14.00;60.00
6556;DHT22;3311;48.32423000;14.29074500;2023-03-26T04:32:30;14.00;60.20
6556;DHT22;3311;48.32423000;14.29074500;2023-03-26T04:34:59;14.10;60.00
6556;DHT22;3311;48.32423000;14.29074500;2023-03-26T04:37:31;14.10;59.70
6556;DHT22;3311;48.32423000;14.29074500;2023-03-26T04:40:00;14.10;59.70
6556;DHT22;3311;48.32423000;14.29074500;2023-03-26T04:42:34;14.10;59.70
6556;DHT22;3311;48.32423000;14.29074500;2023-03-26T04:45:03;14.20;59.40
6556;DHT22;3311;48.32423000;14.29074500;2023-03-26T04:47:30;14.10;59.50
6556;DHT22;3311;48.32423000;14.29074500;2023-03-26T04:50:01;14.10;59.40
6556;DHT22;3311;48.32423000;14.29074500;2023-03-26T04:52:29;14.20;59.60
6556;DHT22;3311;48.32423000;14.29074500;2023-03-26T04:54:56;14.30;59.50
6556;DHT22;3311;48.32423000;14.29074500;2023-03-26T04:57:28;14.10;59.30
6556;DHT22;3311;48.32423000;14.29074500;2023-03-26T04:59:57;14.10;59.40
6556;DHT22;3311;48.32423000;14.29074500;2023-03-26T05:02:24;14.00;59.50
6556;DHT22;3311;48.32423000;14.29074500;2023-03-26T05:04:52;13.90;59.60
6556;DHT22;3311;48.32423000;14.29074500;2023-03-26T05:07:21;13.80;59.70
6556;DHT22;3311;48.32423000;14.29074500;2023-03-26T05:09:48;13.80;60.00
6556;DHT22;3311;48.32423000;14.29074500;2023-03-26T05:12:16;13.70;60.00
6556;DHT22;3311;48.32423000;14.29074500;2023-03-26T05:14:44;13.70;60.00
6556;DHT22;3311;48.32423000;14.29074500;2023-03-26T05:17:13;13.70;60.00
6556;DHT22;3311;48.32423000;14.29074500;2023-03-26T05:19:43;13.70;60.30
6556;DHT22;3311;48.32423000;14.29074500;2023-03-26T05:22:12;13.60;60.40
6556;DHT22;3311;48.32423000;14.29074500;2023-03-26T05:24:39;13.60;60.40
6556;DHT22;3311;48.32423000;14.29074500;2023-03-26T05:27:06;13.60;60.60
6556;DHT22;3311;48.32423000;14.29074500;2023-03-26T05:29:34;13.50;60.70
6556;DHT22;3311;48.32423000;14.29074500;2023-03-26T05:32:03;13.60;61.00
6556;DHT22;3311;48.32423000;14.29074500;2023-03-26T05:34:30;13.70;61.20
6556;DHT22;3311;48.32423000;14.29074500;2023-03-26T05:36:57;13.80;61.10
6556;DHT22;3311;48.32423000;14.29074500;2023-03-26T05:39:26;13.70;60.80
6556;DHT22;3311;48.32423000;14.29074500;2023-03-26T05:41:54;13.60;60.80
6556;DHT22;3311;48.32423000;14.29074500;2023-03-26T05:44:21;13.50;61.10
6556;DHT22;3311;48.32423000;14.29074500;2023-03-26T05:46:49;13.50;61.30
6556;DHT22;3311;48.32423000;14.29074500;2023-03-26T05:49:17;13.50;61.40
6556;DHT22;3311;48.32423000;14.29074500;2023-03-26T05:51:45;13.50;61.60
6556;DHT22;3311;48.32423000;14.29074500;2023-03-26T05:54:12;13.50;61.70
6556;DHT22;3311;48.32423000;14.29074500;2023-03-26T05:56:39;13.50;60.70
6556;DHT22;3311;48.32423000;14.29074500;2023-03-26T05:59:06;13.50;61.20
6556;DHT22;3311;48.32423000;14.29074500;2023-03-26T06:01:33;13.50;61.10
6556;DHT22;3311;48.32423000;14.29074500;2023-03-26T06:04:01;13.50;61.40
6556;DHT22;3311;48.32423000;14.29074500;2023-03-26T06:06:29;13.50;60.90
6556;DHT22;3311;48.32423000;14.29074500;2023-03-26T06:08:56;13.50;61.50
6556;DHT22;3311;48.32423000;14.29074500;2023-03-26T06:11:23;13.40;61.60
6556;DHT22;3311;48.32423000;14.29074500;2023-03-26T06:13:51;13.50;61.00
6556;DHT22;3311;48.32423000;14.29074500;2023-03-26T06:16:18;13.60;61.20
6556;DHT22;3311;48.32423000;14.29074500;2023-03-26T06:18:45;13.50;61.50
6556;DHT22;3311;48.32423000;14.29074500;2023-03-26T06:21:16;13.50;61.80
6556;DHT22;3311;48.32423000;14.29074500;2023-03-26T06:23:45;13.60;62.00
6556;DHT22;3311;48.32423000;14.29074500;2023-03-26T06:26:14;13.60;62.00
6556;DHT22;3311;48.32423000;14.29074500;2023-03-26T06:28:41;13.60;61.90
6556;DHT22;3311;48.32423000;14.29074500;2023-03-26T06:31:08;13.50;62.10
6556;DHT22;3311;48.32423000;14.29074500;2023-03-26T06:33:36;13.50;62.30
6556;DHT22;3311;48.32423000;14.29074500;2023-03-26T06:36:05;13.90;61.60
6556;DHT22;3311;48.32423000;14.29074500;2023-03-26T06:38:32;14.20;61.40
6556;DHT22;3311;48.32423000;14.29074500;2023-03-26T06:41:03;14.70;60.50
6556;DHT22;3311;48.32423000;14.29074500;2023-03-26T06:43:30;14.80;60.00
6556;DHT22;3311;48.32423000;14.29074500;2023-03-26T06:45:59;15.00;59.40
6556;DHT22;3311;48.32423000;14.29074500;2023-03-26T06:48:26;15.20;58.80
6556;DHT22;3311;48.32423000;14.29074500;2023-03-26T06:50:54;15.20;58.20
6556;DHT22;3311;48.32423000;14.29074500;2023-03-26T06:53:21;15.20;57.90
6556;DHT22;3311;48.32423000;14.29074500;2023-03-26T06:55:48;15.20;57.80
6556;DHT22;3311;48.32423000;14.29074500;2023-03-26T06:58:17;15.20;58.40
6556;DHT22;3311;48.32423000;14.29074500;2023-03-26T07:00:44;15.20;57.90
6556;DHT22;3311;48.32423000;14.29074500;2023-03-26T07:03:11;15.30;57.90
6556;DHT22;3311;48.32423000;14.29074500;2023-03-26T07:05:40;15.40;58.00
6556;DHT22;3311;48.32423000;14.29074500;2023-03-26T07:08:07;15.40;57.60
6556;DHT22;3311;48.32423000;14.29074500;2023-03-26T07:10:34;15.40;57.70
6556;DHT22;3311;48.32423000;14.29074500;2023-03-26T07:13:01;15.40;57.20
6556;DHT22;3311;48.32423000;14.29074500;2023-03-26T07:15:31;15.50;57.10
6556;DHT22;3311;48.32423000;14.29074500;2023-03-26T07:17:58;15.60;56.90
6556;DHT22;3311;48.32423000;14.29074500;2023-03-26T07:20:25;15.60;56.80
6556;DHT22;3311;48.32423000;14.29074500;2023-03-26T07:22:53;15.60;56.50
6556;DHT22;3311;48.32423000;14.29074500;2023-03-26T07:25:21;15.70;56.80
6556;DHT22;3311;48.32423000;14.29074500;2023-03-26T07:27:57;15.60;56.40
6556;DHT22;3311;48.32423000;14.29074500;2023-03-26T07:30:35;15.60;56.50
6556;DHT22;3311;48.32423000;14.29074500;2023-03-26T07:33:10;15.70;56.40
6556;DHT22;3311;48.32423000;14.29074500;2023-03-26T07:35:44;15.60;56.50
6556;DHT22;3311;48.32423000;14.29074500;2023-03-26T07:38:37;15.60;56.40
6556;DHT22;3311;48.32423000;14.29074500;2023-03-26T07:41:12;15.60;56.50
6556;DHT22;3311;48.32423000;14.29074500;2023-03-26T07:43:53;15.50;56.60
6556;DHT22;3311;48.32423000;14.29074500;2023-03-26T07:46:28;15.50;56.60
6556;DHT22;3311;48.32423000;14.29074500;2023-03-26T07:48:57;15.50;56.90
6556;DHT22;3311;48.32423000;14.29074500;2023-03-26T07:51:26;15.60;57.10
6556;DHT22;3311;48.32423000;14.29074500;2023-03-26T07:53:53;15.60;56.60
6556;DHT22;3311;48.32423000;14.29074500;2023-03-26T07:56:27;15.70;56.60
6556;DHT22;3311;48.32423000;14.29074500;2023-03-26T07:59:11;15.80;56.50
6556;DHT22;3311;48.32423000;14.29074500;2023-03-26T08:01:59;15.80;56.40
6556;DHT22;3311;48.32423000;14.29074500;2023-03-26T08:04:42;15.90;56.20
6556;DHT22;3311;48.32423000;14.29074500;2023-03-26T08:07:21;16.00;56.10
6556;DHT22;3311;48.32423000;14.29074500;2023-03-26T08:10:00;16.00;56.00
6556;DHT22;3311;48.32423000;14.29074500;2023-03-26T08:12:36;16.10;55.90
6556;DHT22;3311;48.32423000;14.29074500;2023-03-26T08:15:12;16.20;55.90
6556;DHT22;3311;48.32423000;14.29074500;2023-03-26T08:17:47;16.10;55.70
6556;DHT22;3311;48.32423000;14.29074500;2023-03-26T08:20:25;16.00;55.60
6556;DHT22;3311;48.32423000;14.29074500;2023-03-26T08:23:00;16.10;55.60
6556;DHT22;3311;48.32423000;14.29074500;2023-03-26T08:25:33;16.00;55.30
6556;DHT22;3311;48.32423000;14.29074500;2023-03-26T08:28:15;15.90;55.60
6556;DHT22;3311;48.32423000;14.29074500;2023-03-26T08:30:47;15.90;55.70
6556;DHT22;3311;48.32423000;14.29074500;2023-03-26T08:33:18;16.00;55.70
6556;DHT22;3311;48.32423000;14.29074500;2023-03-26T08:35:47;16.00;55.60
6556;DHT22;3311;48.32423000;14.29074500;2023-03-26T08:38:17;16.00;55.40
6556;DHT22;3311;48.32423000;14.29074500;2023-03-26T08:44:22;16.00;55.40
6556;DHT22;3311;48.32423000;14.29074500;2023-03-26T08:47:36;16.00;55.80
6556;DHT22;3311;48.32423000;14.29074500;2023-03-26T08:53:30;16.00;55.50
6556;DHT22;3311;48.32423000;14.29074500;2023-03-26T08:56:13;16.10;55.30
6556;DHT22;3311;48.32423000;14.29074500;2023-03-26T09:05:22;16.30;54.70
6556;DHT22;3311;48.32423000;14.29074500;2023-03-26T09:08:34;16.40;54.80
6556;DHT22;3311;48.32423000;14.29074500;2023-03-26T09:11:46;16.40;54.40
6556;DHT22;3311;48.32423000;14.29074500;2023-03-26T09:14:45;16.50;54.20
6556;DHT22;3311;48.32423000;14.29074500;2023-03-26T09:20:54;16.70;54.20
6556;DHT22;3311;48.32423000;14.29074500;2023-03-26T09:24:10;16.70;54.10
6556;DHT22;3311;48.32423000;14.29074500;2023-03-26T09:26:46;16.80;54.30
6556;DHT22;3311;48.32423000;14.29074500;2023-03-26T09:33:13;16.90;54.30
6556;DHT22;3311;48.32423000;14.29074500;2023-03-26T09:35:52;16.90;55.00
6556;DHT22;3311;48.32423000;14.29074500;2023-03-26T09:38:42;16.90;54.80
6556;DHT22;3311;48.32423000;14.29074500;2023-03-26T09:41:16;16.90;54.80
6556;DHT22;3311;48.32423000;14.29074500;2023-03-26T09:44:18;16.90;54.70
6556;DHT22;3311;48.32423000;14.29074500;2023-03-26T09:46:55;16.90;55.00
6556;DHT22;3311;48.32423000;14.29074500;2023-03-26T09:49:41;16.90;54.60
6556;DHT22;3311;48.32423000;14.29074500;2023-03-26T10:01:07;16.90;54.30
6556;DHT22;3311;48.32423000;14.29074500;2023-03-26T10:03:47;16.90;53.90
6556;DHT22;3311;48.32423000;14.29074500;2023-03-26T10:06:38;17.00;53.90
6556;DHT22;3311;48.32423000;14.29074500;2023-03-26T10:09:36;17.00;53.30
6556;DHT22;3311;48.32423000;14.29074500;2023-03-26T10:12:22;16.90;53.40
6556;DHT22;3311;48.32423000;14.29074500;2023-03-26T10:15:15;16.90;53.60
6556;DHT22;3311;48.32423000;14.29074500;2023-03-26T10:17:56;16.90;53.50
6556;DHT22;3311;48.32423000;14.29074500;2023-03-26T10:20:48;17.00;53.60
6556;DHT22;3311;48.32423000;14.29074500;2023-03-26T10:23:48;17.00;53.10
6556;DHT22;3311;48.32423000;14.29074500;2023-03-26T10:26:35;16.90;53.30
6556;DHT22;3311;48.32423000;14.29074500;2023-03-26T10:29:26;16.90;53.30
6556;DHT22;3311;48.32423000;14.29074500;2023-03-26T10:32:09;16.80;53.20
6556;DHT22;3311;48.32423000;14.29074500;2023-03-26T10:35:00;16.80;53.40
6556;DHT22;3311;48.32423000;14.29074500;2023-03-26T10:37:46;16.80;53.50
6556;DHT22;3311;48.32423000;14.29074500;2023-03-26T10:40:27;16.80;54.00
6556;DHT22;3311;48.32423000;14.29074500;2023-03-26T10:43:27;16.80;53.60
6556;DHT22;3311;48.32423000;14.29074500;2023-03-26T10:46:43;16.80;53.40
6556;DHT22;3311;48.32423000;14.29074500;2023-03-26T10:52:09;16.70;52.70
6556;DHT22;3311;48.32423000;14.29074500;2023-03-26T10:54:54;16.70;53.10
6556;DHT22;3311;48.32423000;14.29074500;2023-03-26T10:57:28;16.70;53.20
6556;DHT22;3311;48.32423000;14.29074500;2023-03-26T11:00:06;16.70;53.10
6556;DHT22;3311;48.32423000;14.29074500;2023-03-26T11:02:43;16.60;52.70
6556;DHT22;3311;48.32423000;14.29074500;2023-03-26T11:05:32;16.60;53.30
6556;DHT22;3311;48.32423000;14.29074500;2023-03-26T11:08:08;16.60;53.30
6556;DHT22;3311;48.32423000;14.29074500;2023-03-26T11:10:46;16.70;53.90
6556;DHT22;3311;48.32423000;14.29074500;2023-03-26T11:13:20;16.70;53.60
6556;DHT22;3311;48.32423000;14.29074500;2023-03-26T11:15:55;16.60;53.60
6556;DHT22;3311;48.32423000;14.29074500;2023-03-26T11:18:34;16.70;53.60
6556;DHT22;3311;48.32423000;14.29074500;2023-03-26T11:21:07;16.70;53.30
6556;DHT22;3311;48.32423000;14.29074500;2023-03-26T11:23:41;16.70;52.90
6556;DHT22;3311;48.32423000;14.29074500;2023-03-26T11:26:15;16.60;53.10
6556;DHT22;3311;48.32423000;14.29074500;2023-03-26T11:28:56;16.60;53.40
6556;DHT22;3311;48.32423000;14.29074500;2023-03-26T11:31:33;16.70;54.40
6556;DHT22;3311;48.32423000;14.29074500;2023-03-26T11:34:08;16.70;54.20
6556;DHT22;3311;48.32423000;14.29074500;2023-03-26T11:36:41;16.80;54.20
6556;DHT22;3311;48.32423000;14.29074500;2023-03-26T11:39:11;16.80;53.50
6556;DHT22;3311;48.32423000;14.29074500;2023-03-26T11:41:40;16.80;53.30
6556;DHT22;3311;48.32423000;14.29074500;2023-03-26T11:44:18;16.80;53.40
6556;DHT22;3311;48.32423000;14.29074500;2023-03-26T11:46:50;16.80;53.80
6556;DHT22;3311;48.32423000;14.29074500;2023-03-26T11:49:19;16.80;53.90
6556;DHT22;3311;48.32423000;14.29074500;2023-03-26T11:51:49;16.70;53.80
6556;DHT22;3311;48.32423000;14.29074500;2023-03-26T11:54:16;16.70;53.30
6556;DHT22;3311;48.32423000;14.29074500;2023-03-26T11:56:47;16.70;53.60
6556;DHT22;3311;48.32423000;14.29074500;2023-03-26T11:59:18;16.60;54.70
6556;DHT22;3311;48.32423000;14.29074500;2023-03-26T12:01:49;16.60;54.10
6556;DHT22;3311;48.32423000;14.29074500;2023-03-26T12:04:18;16.60;53.80
6556;DHT22;3311;48.32423000;14.29074500;2023-03-26T12:06:57;16.60;53.80
6556;DHT22;3311;48.32423000;14.29074500;2023-03-26T12:09:25;16.50;53.10
6556;DHT22;3311;48.32423000;14.29074500;2023-03-26T12:11:58;16.50;53.80
6556;DHT22;3311;48.32423000;14.29074500;2023-03-26T12:14:28;16.40;52.80
6556;DHT22;3311;48.32423000;14.29074500;2023-03-26T12:17:01;16.30;52.90
6556;DHT22;3311;48.32423000;14.29074500;2023-03-26T12:19:35;16.30;53.30
6556;DHT22;3311;48.32423000;14.29074500;2023-03-26T12:22:27;16.30;52.50
6556;DHT22;3311;48.32423000;14.29074500;2023-03-26T12:25:12;16.30;52.30
6556;DHT22;3311;48.32423000;14.29074500;2023-03-26T12:27:43;16.40;53.50
6556;DHT22;3311;48.32423000;14.29074500;2023-03-26T12:30:20;16.30;53.30
6556;DHT22;3311;48.32423000;14.29074500;2023-03-26T12:32:49;16.30;53.90
6556;DHT22;3311;48.32423000;14.29074500;2023-03-26T12:35:17;16.30;54.00
6556;DHT22;3311;48.32423000;14.29074500;2023-03-26T12:37:47;16.30;53.60
6556;DHT22;3311;48.32423000;14.29074500;2023-03-26T12:40:29;16.40;53.90
6556;DHT22;3311;48.32423000;14.29074500;2023-03-26T12:43:00;16.40;54.40
6556;DHT22;3311;48.32423000;14.29074500;2023-03-26T12:45:30;16.40;53.60
6556;DHT22;3311;48.32423000;14.29074500;2023-03-26T12:47:58;16.30;53.50
6556;DHT22;3311;48.32423000;14.29074500;2023-03-26T12:50:34;16.40;53.30
6556;DHT22;3311;48.32423000;14.29074500;2023-03-26T12:53:18;16.40;53.50
6556;DHT22;3311;48.32423000;14.29074500;2023-03-26T12:55:54;16.40;53.30
6556;DHT22;3311;48.32423000;14.29074500;2023-03-26T12:59:08;16.40;52.90
6556;DHT22;3311;48.32423000;14.29074500;2023-03-26T13:01:48;16.40;53.20
6556;DHT22;3311;48.32423000;14.29074500;2023-03-26T13:07:29;16.40;53.50
6556;DHT22;3311;48.32423000;14.29074500;2023-03-26T13:10:34;16.30;53.40
6556;DHT22;3311;48.32423000;14.29074500;2023-03-26T13:13:16;16.30;53.40
6556;DHT22;3311;48.32423000;14.29074500;2023-03-26T13:15:49;16.30;53.60
6556;DHT22;3311;48.32423000;14.29074500;2023-03-26T13:18:24;16.30;54.30
6556;DHT22;3311;48.32423000;14.29074500;2023-03-26T13:21:00;16.40;54.00
6556;DHT22;3311;48.32423000;14.29074500;2023-03-26T13:23:39;16.40;54.10
6556;DHT22;3311;48.32423000;14.29074500;2023-03-26T13:26:21;16.50;54.10
6556;DHT22;3311;48.32423000;14.29074500;2023-03-26T13:28:59;16.50;54.40
6556;DHT22;3311;48.32423000;14.29074500;2023-03-26T13:31:33;16.50;54.00
6556;DHT22;3311;48.32423000;14.29074500;2023-03-26T13:34:11;16.50;54.30
6556;DHT22;3311;48.32423000;14.29074500;2023-03-26T13:36:47;16.50;54.30
6556;DHT22;3311;48.32423000;14.29074500;2023-03-26T13:39:25;16.50;55.10
6556;DHT22;3311;48.32423000;14.29074500;2023-03-26T13:42:09;16.50;54.80
6556;DHT22;3311;48.32423000;14.29074500;2023-03-26T13:44:50;16.50;54.70
6556;DHT22;3311;48.32423000;14.29074500;2023-03-26T13:47:24;16.40;54.90
6556;DHT22;3311;48.32423000;14.29074500;2023-03-26T13:49:56;16.40;55.50
6556;DHT22;3311;48.32423000;14.29074500;2023-03-26T13:52:26;16.40;55.50
6556;DHT22;3311;48.32423000;14.29074500;2023-03-26T13:55:04;16.40;56.00
6556;DHT22;3311;48.32423000;14.29074500;2023-03-26T13:57:37;16.40;56.50
6556;DHT22;3311;48.32423000;14.29074500;2023-03-26T14:00:12;16.40;56.70
6556;DHT22;3311;48.32423000;14.29074500;2023-03-26T14:02:43;16.30;56.40
6556;DHT22;3311;48.32423000;14.29074500;2023-03-26T14:05:18;16.40;57.20
6556;DHT22;3311;48.32423000;14.29074500;2023-03-26T14:07:50;16.40;57.10
6556;DHT22;3311;48.32423000;14.29074500;2023-03-26T14:10:22;16.30;57.30
6556;DHT22;3311;48.32423000;14.29074500;2023-03-26T14:12:55;16.20;57.50
6556;DHT22;3311;48.32423000;14.29074500;2023-03-26T14:15:27;16.30;57.60
6556;DHT22;3311;48.32423000;14.29074500;2023-03-26T14:18:03;16.30;57.80
6556;DHT22;3311;48.32423000;14.29074500;2023-03-26T14:24:01;16.20;58.30
6556;DHT22;3311;48.32423000;14.29074500;2023-03-26T14:26:51;16.10;58.90
6556;DHT22;3311;48.32423000;14.29074500;2023-03-26T14:29:36;16.20;59.00
6556;DHT22;3311;48.32423000;14.29074500;2023-03-26T14:32:18;16.20;58.90
6556;DHT22;3311;48.32423000;14.29074500;2023-03-26T14:35:02;16.30;59.30
6556;DHT22;3311;48.32423000;14.29074500;2023-03-26T14:37:56;16.30;59.70
6556;DHT22;3311;48.32423000;14.29074500;2023-03-26T14:40:29;16.20;59.80
6556;DHT22;3311;48.32423000;14.29074500;2023-03-26T14:46:09;16.10;60.60
6556;DHT22;3311;48.32423000;14.29074500;2023-03-26T14:51:58;16.30;59.70
6556;DHT22;3311;48.32423000;14.29074500;2023-03-26T14:54:28;16.30;59.30
6556;DHT22;3311;48.32423000;14.29074500;2023-03-26T15:10:09;16.20;59.80